Latest Weather Observations for Trepell

IDQ60801

Issued at 9:02 pm EST Wednesday 20 September 2017 (issued every 30 minutes, with the page automatically refreshed every 10 minutes)

About weather observations | Map of weather stations | Latest weather observations for QLD | Other Formats
Station Details ID: 037036 Name: TREPELL AIRPORT Lat: -21.84 Lon: 140.89 Height: 266.2 m
Data from the previous 72 hours. | See also: Recent months at Trepell
Date/Time
EST
Temp
°C
App
Temp
°C
Dew
Point
°C
Rel
Hum
%
Delta-T
°C
Wind Press
QNH
hPa
Press
MSL
hPa
Rain since
9am
mm
Dir  Spd
km/h
Gust
km/h
Spd
kts
Gust
kts
20/09:00pm 24.5 19.1 -7.9 11 13.0 SSW 13 13 7 7 1015.5 1014.4 0.0
20/08:30pm 25.0 20.1 -7.5 11 13.2 S 11 11 6 6 1015.3 1014.2 0.0
20/08:00pm 26.1 21.5 -7.9 10 13.8 SW 9 11 5 6 1015.0 1013.8 0.0
20/07:30pm 26.6 21.7 -7.5 10 14.0 SSW 11 13 6 7 1014.7 1013.5 0.0
20/07:00pm 28.0 23.4 -7.8 9 14.8 SSW 9 11 5 6 1014.5 1013.3 0.0
20/06:30pm 30.1 25.3 -6.2 9 15.8 SSW 11 15 6 8 1014.1 1012.9 0.0
20/06:00pm 31.9 27.8 -6.4 8 16.8 SW 7 13 4 7 1013.9 1012.7 0.0
20/05:30pm 32.5 27.7 -6.0 8 17.1 WSW 11 17 6 9 1013.8 1012.6 0.0
20/05:00pm 32.7 27.2 -5.8 8 17.2 SW 15 24 8 13 1013.6 1012.4 0.0
20/04:30pm 33.5 28.8 -5.2 8 17.6 SSW 11 20 6 11 1013.6 1012.4 0.0
20/04:00pm 33.4 29.4 -5.3 8 17.5 S 7 17 4 9 1013.5 1012.3 0.0
20/03:30pm 33.5 29.2 -5.2 8 17.6 S 9 22 5 12 1013.7 1012.5 0.0
20/03:00pm 33.0 28.0 -4.0 9 17.1 SSE 13 19 7 10 1014.0 1012.8 0.0
20/02:30pm 32.7 28.5 -4.3 9 17.0 W 9 15 5 8 1014.4 1013.2 0.0
20/02:00pm 32.7 29.0 -2.9 10 16.7 SSE 7 15 4 8 1014.9 1013.7 0.0
20/01:30pm 32.5 28.4 -3.0 10 16.6 ESE 9 19 5 10 1015.6 1014.5 0.0
20/01:00pm 32.0 28.0 -2.1 11 16.1 SW 9 19 5 10 1016.3 1015.1 0.0
20/12:30pm 31.9 27.5 -2.2 11 16.1 ESE 11 22 6 12 1016.9 1015.7 0.0
20/12:00pm 31.4 26.2 -2.6 11 15.9 SE 15 26 8 14 1017.5 1016.3 0.0
20/11:30am 31.7 26.7 -1.2 12 15.8 SE 15 22 8 12 1018.1 1016.9 0.0
20/11:00am 30.0 24.1 -2.5 12 15.0 ESE 19 30 10 16 1018.7 1017.6 0.0
20/10:30am 29.7 23.7 -2.7 12 14.9 ESE 19 24 10 13 1019.2 1018.1 0.0
20/10:00am 29.1 22.3 -2.1 13 14.4 ESE 24 33 13 18 1019.4 1018.3 0.0
20/09:30am 27.9 22.4 -2.0 14 13.7 ESE 17 20 9 11 1019.7 1018.6 0.0
20/09:00am 25.5 20.8 -2.1 16 12.4 ESE 13 19 7 10 1019.9 1018.7 0.0
20/08:30am 22.2 18.5 -2.5 19 10.7 ESE 7 13 4 7 1020.1 1018.9 0.0
20/08:00am 20.3 16.8 -2.7 21 9.8 S 6 9 3 5 1019.7 1018.6 0.0
20/07:30am 18.0 14.2 -3.4 23 8.8 SW 7 9 4 5 1019.2 1018.1 0.0
20/07:00am 15.6 11.7 -4.3 25 7.8 SW 7 9 4 5 1019.1 1018.0 0.0
20/06:30am 14.7 10.5 -4.1 27 7.3 SW 9 11 5 6 1018.8 1017.7 0.0
20/06:00am 15.0 10.3 -4.8 25 7.6 SW 11 13 6 7 1018.6 1017.5 0.0
20/05:30am 15.1 10.4 -4.8 25 7.7 SW 11 13 6 7 1018.3 1017.1 0.0
20/05:00am 15.5 10.8 -5.0 24 7.9 WSW 11 13 6 7 1018.0 1016.8 0.0
20/04:30am 16.4 13.0 -5.3 22 8.4 WSW 4 7 2 4 1017.6 1016.4 0.0
20/04:00am 16.4 11.7 -5.3 22 8.4 SW 11 13 6 7 1017.5 1016.3 0.0
20/03:30am 17.1 12.3 -6.0 20 8.9 SW 11 13 6 7 1017.4 1016.2 0.0
20/03:00am 17.4 12.9 -6.4 19 9.1 SW 9 11 5 6 1017.6 1016.4 0.0
20/02:30am 17.8 13.7 -6.8 18 9.4 SSW 7 11 4 6 1017.7 1016.5 0.0
20/02:00am 17.7 12.4 -7.6 17 9.5 SW 13 15 7 8 1017.6 1016.4 0.0
20/01:30am 18.0 13.1 -7.4 17 9.6 SSW 11 15 6 8 1017.9 1016.7 0.0
20/01:00am 18.8 13.9 -7.5 16 10.0 SSW 11 15 6 8 1017.8 1016.6 0.0
20/12:30am 19.6 14.3 -7.7 15 10.4 SSW 13 17 7 9 1018.0 1016.8 0.0
20/12:00am 20.4 15.4 -8.0 14 10.9 SSW 11 13 6 7 1018.2 1017.0 0.0
 
Date/Time
EST
Temp
°C
App
Temp
°C
Dew
Point
°C
Rel
Hum
%
Delta-T
°C
Wind Press
QNH
hPa
Press
MSL
hPa
Rain since
9am
mm
Dir  Spd
km/h
Gust
km/h
Spd
kts
Gust
kts
19/11:30pm 22.1 16.8 -7.6 13 11.7 SSW 13 17 7 9 1018.1 1016.9 0.0
19/11:00pm 23.7 17.7 -6.3 13 12.3 S 17 22 9 12 1018.1 1016.9 0.0
19/10:30pm 23.9 17.9 -6.2 13 12.4 SSW 17 20 9 11 1018.0 1016.8 0.0
19/10:00pm 23.7 18.5 -6.3 13 12.3 SSW 13 17 7 9 1018.0 1016.8 0.0
19/09:30pm 25.1 19.9 -6.3 12 13.0 SSW 13 19 7 10 1017.9 1016.7 0.0
19/09:00pm 25.8 20.6 -5.7 12 13.3 S 13 15 7 8 1017.7 1016.5 0.0
19/08:30pm 26.4 21.4 -4.2 13 13.4 S 13 17 7 9 1017.5 1016.3 0.0
19/08:00pm 26.6 22.0 -4.0 13 13.4 S 11 15 6 8 1017.1 1015.9 0.0
19/07:30pm 26.9 22.6 -4.9 12 13.8 S 9 11 5 6 1016.9 1015.7 0.0
19/07:00pm 28.9 24.3 -4.5 11 14.8 S 11 13 6 7 1016.4 1015.2 0.0
19/06:30pm 30.7 25.5 -3.1 11 15.6 SSW 15 20 8 11 1016.0 1014.8 0.0
19/06:00pm 32.1 26.5 -3.3 10 16.4 S 17 24 9 13 1015.6 1014.5 0.0
19/05:30pm 32.9 27.3 -2.7 10 16.8 SSE 17 24 9 13 1015.3 1014.2 0.0
19/05:00pm 33.5 28.4 -2.3 10 17.0 S 15 22 8 12 1015.2 1014.1 0.0
19/04:30pm 33.7 28.2 -2.1 10 17.1 S 17 26 9 14 1015.3 1014.2 0.0
19/04:00pm 33.9 29.3 -0.7 11 17.0 ESE 13 20 7 11 1015.4 1014.3 0.0
19/03:30pm 34.1 29.0 -1.8 10 17.3 SW 15 24 8 13 1015.5 1014.4 0.0
19/03:00pm 34.0 29.5 -0.6 11 17.0 SSE 13 19 7 10 1015.8 1014.7 0.0
19/02:30pm 33.4 27.5 -1.0 11 16.7 SSW 20 32 11 17 1016.3 1015.1 0.0
19/02:00pm 33.0 27.6 -1.4 11 16.6 SSE 17 30 9 16 1016.6 1015.4 0.0
19/01:30pm 32.3 29.0 0.4 13 15.8 SSW 7 17 4 9 1017.1 1015.9 0.0
19/01:00pm 32.5 28.1 0.6 13 15.8 SSE 13 26 7 14 1017.6 1016.4 0.0
19/12:30pm 32.0 27.2 0.2 13 15.6 ESE 15 30 8 16 1018.1 1016.9 0.0
19/12:00pm 31.8 28.0 2.0 15 15.1 ENE 11 19 6 10 1018.6 1017.5 0.0
19/11:30am 31.4 27.5 3.4 17 14.5 NE 13 24 7 13 1019.0 1017.9 0.0
19/11:00am 31.0 26.4 5.4 20 13.6 NNE 19 26 10 14 1019.2 1018.1 0.0
19/10:30am 30.5 25.9 6.4 22 13.0 NNE 20 28 11 15 1019.7 1018.6 0.0
19/10:00am 28.9 25.1 7.5 26 11.7 NNE 17 24 9 13 1020.0 1018.8 0.0
19/09:30am 27.5 23.5 6.8 27 11.1 NNE 17 22 9 12 1020.3 1019.1 0.0
19/09:00am 25.4 22.1 2.2 22 11.3 NNE 9 17 5 9 1020.4 1019.2 0.0
19/08:30am 22.6 19.6 -2.2 19 10.9 ESE 4 7 2 4 1020.2 1019.0 0.0
19/08:00am 20.4 18.0 -3.3 20 9.9 CALM 0 0 0 0 1020.0 1018.8 0.0
19/07:30am 18.6 15.7 -4.1 21 9.2 W 2 6 1 3 1019.6 1018.5 0.0
19/07:00am 17.3 12.6 -4.6 22 8.7 SSW 11 13 6 7 1019.1 1018.0 0.0
19/06:30am 17.3 13.6 -4.6 22 8.7 SW 6 9 3 5 1018.9 1017.8 0.0
19/06:00am 17.7 14.1 -3.7 23 8.7 SSE 6 15 3 8 1018.7 1017.6 0.0
19/05:30am 17.6 12.9 -5.0 21 8.9 NE 11 13 6 7 1018.3 1017.1 0.0
19/05:00am 17.1 13.1 -5.4 21 8.8 NE 7 9 4 5 1017.9 1016.7 0.0
19/04:30am 16.8 12.9 -5.0 22 8.5 NE 7 7 4 4 1017.6 1016.4 0.0
19/04:00am 16.0 11.7 -4.5 24 8.0 NE 9 11 5 6 1017.3 1016.1 0.0
19/03:30am 16.8 14.3 -4.4 23 8.4 CALM 0 0 0 0 1017.3 1016.1 0.0
19/03:00am 17.6 13.9 -5.0 21 8.9 NNW 6 7 3 4 1017.5 1016.3 0.0
19/02:30am 18.2 14.3 -4.5 21 9.1 N 7 13 4 7 1017.7 1016.5 0.0
19/02:00am 18.5 15.2 -4.2 21 9.2 NW 4 9 2 5 1017.9 1016.7 0.0
19/01:30am 18.0 14.2 -5.9 19 9.3 WNW 6 9 3 5 1018.0 1016.8 0.0
19/01:00am 19.4 15.0 -5.5 18 9.9 W 9 11 5 6 1018.4 1017.2 0.0
19/12:30am 19.7 15.9 -5.3 18 10.0 SW 6 9 3 5 1018.3 1017.1 0.0
19/12:00am 20.0 16.4 -7.4 15 10.6 ESE 4 7 2 4 1018.4 1017.2 0.0
 
Date/Time
EST
Temp
°C
App
Temp
°C
Dew
Point
°C
Rel
Hum
%
Delta-T
°C
Wind Press
QNH
hPa
Press
MSL
hPa
Rain since
9am
mm
Dir  Spd
km/h
Gust
km/h
Spd
kts
Gust
kts
18/11:30pm 20.1 16.3 -5.7 17 10.3 E 6 11 3 6 1018.4 1017.2 0.0
18/11:00pm 19.5 14.7 -6.2 17 10.1 E 11 13 6 7 1018.3 1017.1 0.0
18/10:30pm 22.1 17.8 -4.9 16 11.2 ESE 9 11 5 6 1018.3 1017.1 0.0
18/10:00pm 22.1 18.4 -4.9 16 11.2 ESE 6 7 3 4 1018.3 1017.1 0.0
18/09:30pm 24.0 19.7 -5.1 14 12.2 S 9 9 5 5 1018.1 1016.9 0.0
18/09:00pm 25.2 20.7 -3.2 15 12.5 S 11 11 6 6 1017.8 1016.6 0.0
18/08:30pm 24.7 20.4 -4.6 14 12.5 S 9 9 5 5 1017.6 1016.4 0.0
18/08:00pm 26.4 22.4 -2.3 15 12.9 S 9 11 5 6 1017.2 1016.0 0.0
18/07:30pm 28.0 23.9 -3.0 13 14.0 S 9 11 5 6 1017.0 1015.8 0.0
18/07:00pm 29.1 25.9 -3.2 12 14.7 S 4 7 2 4 1016.7 1015.5 0.0
18/06:30pm 30.0 26.4 -3.6 11 15.3 SSW 6 7 3 4 1016.4 1015.2 0.0
18/06:00pm 31.4 27.7 -2.6 11 15.9 WSW 7 11 4 6 1016.1 1014.9 0.0
18/05:30pm 32.2 28.5 -3.2 10 16.5 WSW 7 11 4 6 1016.0 1014.8 0.0
18/05:00pm 32.4 28.3 -3.1 10 16.5 SSW 9 17 5 9 1015.8 1014.7 0.0
18/04:30pm 33.1 29.6 -2.6 10 16.9 SW 6 9 3 5 1015.8 1014.7 0.0
18/04:00pm 32.5 29.0 -3.0 10 16.6 WNW 6 11 3 6 1016.0 1014.8 0.0
18/03:30pm 32.2 27.7 -3.2 10 16.5 WNW 11 19 6 10 1016.1 1014.9 0.0
18/03:00pm 32.1 28.5 -2.0 11 16.2 SE 7 13 4 7 1016.5 1015.3 0.0
18/02:30pm 31.5 27.6 -1.3 12 15.7 NNE 9 15 5 8 1016.8 1015.6 0.0
18/02:00pm 31.8 27.6 -1.1 12 15.8 NE 11 17 6 9 1017.3 1016.1 0.0
18/01:30pm 31.2 27.7 -1.5 12 15.5 WNW 7 15 4 8 1017.8 1016.6 0.0
18/01:00pm 30.5 26.0 0.0 14 14.8 NNW 13 24 7 13 1018.3 1017.1 0.0
18/12:30pm 30.5 26.1 2.7 17 14.1 NNE 15 28 8 15 1018.9 1017.8 0.0
18/12:00pm 29.9 25.2 3.0 18 13.7 NNE 17 24 9 13 1019.5 1018.4 0.0
18/11:30am 29.7 24.9 4.4 20 13.2 NNE 19 26 10 14 1020.2 1019.0 0.0
18/11:00am 28.2 23.2 4.5 22 12.2 NNE 20 30 11 16 1020.6 1019.4 0.0
18/10:30am 26.6 21.3 5.0 25 11.1 NNE 22 30 12 16 1020.9 1019.7 0.0
18/10:00am 26.0 20.2 4.5 25 10.9 NNE 24 32 13 17 1021.1 1019.9 0.0
18/09:30am 25.0 18.7 3.6 25 10.7 NNE 26 33 14 18 1021.0 1019.8 0.0
18/09:00am 23.8 17.6 2.0 24 10.4 NNE 24 32 13 17 1020.9 1019.7 0.0
18/08:30am 22.9 16.7 1.9 25 10.0 NNE 24 32 13 17 1020.5 1019.3 0.0
18/08:00am 22.0 16.4 -0.1 23 10.0 NNE 19 26 10 14 1020.2 1019.0 0.0
18/07:53am 21.5 17.0 -0.5 23 9.9 NNE 13 24 7 13 1020.1 1018.9 0.0
18/07:30am 16.5 12.1 -10.2 15 9.3 NNE 7 9 4 5 1019.9 1018.7 0.0
18/07:00am 13.1 9.9 -12.1 16 8.1 CALM 0 0 0 0 1019.3 1018.2 0.0
18/06:30am 13.0 8.6 -13.8 14 8.3 NW 6 7 3 4 1019.0 1017.9 0.0
18/06:00am 13.7 9.6 -14.2 13 8.6 NW 4 7 2 4 1018.7 1017.6 0.0
18/05:30am 14.6 11.4 -12.6 14 8.8 CALM 0 0 0 0 1018.4 1017.2 0.0
18/05:00am 12.4 9.1 -14.3 14 8.1 CALM 0 0 0 0 1018.2 1017.0 0.0
18/04:30am 13.6 9.1 -14.3 13 8.6 NE 6 7 3 4 1018.0 1016.8 0.0
18/04:00am 13.2 9.9 -14.6 13 8.4 CALM 0 0 0 0 1018.0 1016.8 0.0
18/03:30am 14.4 10.0 -13.6 13 8.9 W 6 9 3 5 1018.0 1016.8 0.0
18/03:00am 14.4 10.0 -13.6 13 8.8 WNW 6 7 3 4 1018.1 1016.9 0.0
18/02:30am 15.3 12.0 -13.9 12 9.3 CALM 0 0 0 0 1018.4 1017.2 0.0
18/02:00am 16.9 13.7 -12.6 12 9.8 CALM 0 0 0 0 1018.6 1017.5 0.0
18/01:30am 16.4 13.1 -13.0 12 9.7 CALM 0 0 0 0 1018.7 1017.6 0.0
18/01:00am 16.8 13.6 -12.7 12 9.8 CALM 0 0 0 0 1018.8 1017.7 0.0
18/12:30am 16.2 12.9 -13.2 12 9.6 CALM 0 0 0 0 1019.1 1018.0 0.0
18/12:00am 18.3 15.0 -13.8 10 10.6 CALM 0 4 0 2 1019.5 1018.4 0.0
 
Date/Time
EST
Temp
°C
App
Temp
°C
Dew
Point
°C
Rel
Hum
%
Delta-T
°C
Wind Press
QNH
hPa
Press
MSL
hPa
Rain since
9am
mm
Dir  Spd
km/h
Gust
km/h
Spd
kts
Gust
kts
17/11:30pm 18.5 14.1 -13.6 10 10.7 ENE 6 9 3 5 1019.5 1018.4 0.0
17/11:00pm 20.5 14.9 -10.9 11 11.3 ESE 13 17 7 9 1019.4 1018.3 0.0
17/10:30pm 21.6 15.6 -11.3 10 12.0 SE 15 19 8 10 1019.3 1018.2 0.0
17/10:00pm 21.5 15.5 -11.4 10 11.9 SE 15 17 8 9 1019.2 1018.1 0.0
17/09:30pm 22.4 16.4 -10.7 10 12.3 SE 15 19 8 10 1019.2 1018.1 0.0

Other Formats:

Comma delimited format used in spreadsheet applications
http://www.bom.gov.au/fwo/IDQ60801/IDQ60801.94338.axf

JavaScript Object Notation format (JSON) in row-major order
http://www.bom.gov.au/fwo/IDQ60801/IDQ60801.94338.json